Pagina principale
METAR-TAF:

METAR-TAF

Aeroporti :

Turaif, Arabia Saudita

latitudine: 31-41N, longitudine: 038-44E, altezza: 813 m

Osservazione

Il bollettino è stato emesso 34 minuti fa, alle 23:00 UTC
Vento 8 kt da nord
Temperature 20°C
Umidità 37%
Pressione 1015 hPa
Visibilità 10 km o più
nessuna nube inferiore a 1500 m e nessun cumulonembo

METAR: OETR 302300Z 35008KT CAVOK 20/05 Q1015

Ora: 02:34 (23:34 UTC)

Previsione

Il bollettino è stato emesso 12 ore e 34 minuti fa, alle 11:00 UTC
Previsione valida dal 30 alle 12 UTC al 31 alle 18 UTC
Vento 10 kt da ovest/sud-ovest
Visibilità 10 km o più
nessuna nube inferiore a 1500 m e nessun cumulonembo
Evoluzione graduale
dal 30 alle 18 UTC al 30 alle 20 UTC
Vento 13 kt da nord-est
Visibilità: 6000 m

TAF: OETR 301100Z 3012/3118 24010KT CAVOK BECMG 3018/3020 04013KT 6000 NSC

Osservazioni e previsioni meteorologiche di più di 4000 aeroporti (messaggi METAR e TAF).

Le stazioni disponibili sono rappresentate dai dischi gialli e rossi sulla carta.

Puntare il mouse per vedere il nome della stazione.

Clicca sopra per visualizzare le osservazioni e previsioni meteorologiche.

Per cambiare la mappa : fare clic sui pulsanti verdi con una croce nera per ingrandire, il pulsante verde con un trattino per diminuire, o sulla freccia verde per le mappe adiacenti.


METAR-TAF: